Time;durP1;ratioP1;P1;durP2;ratioP2;P2;SDS_P1;SDS_P2;PMS_P1;PMS_P2;Temp;Humidity;BMP_temperature;BMP_pressure;BME280_temperature;BME280_humidity;BME280_pressure;Samples;Min_cycle;Max_cycle;Signal;HPM_P1;HPM_P2
2024/01/06 00:00:36;;;;;;;14.75;7.25;;;6.50;99.90;;;;;;6311261;22;20380;-73
2024/01/06 00:03:04;;;;;;;12.85;6.00;;;6.40;99.90;;;;;;6285491;22;20043;-73
2024/01/06 00:05:33;;;;;;;12.48;5.75;;;6.40;99.90;;;;;;6312126;22;20042;-73
2024/01/06 00:08:00;;;;;;;10.70;5.38;;;6.40;99.90;;;;;;6337051;22;20457;-73
2024/01/06 00:10:27;;;;;;;10.90;5.45;;;6.40;99.90;;;;;;6338627;22;20030;-73
2024/01/06 00:12:54;;;;;;;10.60;5.22;;;6.40;99.90;;;;;;6285694;22;20447;-71
2024/01/06 00:15:21;;;;;;;10.23;4.90;;;6.40;99.90;;;;;;6310901;22;20064;-72
2024/01/06 00:17:48;;;;;;;11.00;4.85;;;6.40;99.90;;;;;;6280067;22;20479;-72
2024/01/06 00:20:15;;;;;;;12.63;5.90;;;6.30;99.90;;;;;;6280349;22;20034;-72
2024/01/06 00:22:44;;;;;;;11.98;5.57;;;6.30;99.90;;;;;;6305944;22;20062;-72
2024/01/06 00:25:11;;;;;;;11.32;5.38;;;6.30;99.90;;;;;;6307483;22;20023;-72
2024/01/06 00:27:38;;;;;;;10.30;4.40;;;6.30;99.90;;;;;;6307354;22;20019;-72
2024/01/06 00:30:06;;;;;;;12.55;5.40;;;6.20;99.90;;;;;;6254899;22;20069;-72
2024/01/06 00:32:33;;;;;;;13.32;6.15;;;6.20;99.90;;;;;;6280253;22;20027;-72
2024/01/06 00:35:04;;;;;;;14.02;5.95;;;6.10;99.90;;;;;;6305703;22;20015;-72
2024/01/06 00:37:31;;;;;;;12.27;6.05;;;6.00;99.90;;;;;;6305904;22;20020;-72
2024/01/06 00:39:59;;;;;;;10.00;5.13;;;6.00;99.90;;;;;;6280011;22;20016;-72
2024/01/06 00:42:26;;;;;;;12.00;5.32;;;6.00;99.90;;;;;;6280314;22;20046;-72
2024/01/06 00:44:53;;;;;;;11.60;5.72;;;5.90;99.90;;;;;;6305750;22;20072;-72
2024/01/06 00:47:23;;;;;;;9.43;4.50;;;5.90;99.90;;;;;;6279876;22;20022;-72
2024/01/06 00:49:51;;;;;;;10.98;5.00;;;5.80;99.90;;;;;;6305473;22;20109;-72
2024/01/06 00:52:18;;;;;;;10.98;4.53;;;5.80;99.90;;;;;;6305240;22;20022;-71
2024/01/06 00:54:45;;;;;;;8.23;3.80;;;5.80;99.90;;;;;;6307070;22;20015;-72
2024/01/06 00:57:12;;;;;;;9.63;4.78;;;5.70;99.90;;;;;;6305385;22;20015;-72
2024/01/06 00:59:39;;;;;;;10.32;4.40;;;5.70;99.90;;;;;;6305385;22;20034;-72
2024/01/06 01:02:06;;;;;;;9.70;5.03;;;5.70;99.90;;;;;;6279660;22;20345;-72
2024/01/06 01:04:33;;;;;;;8.88;4.05;;;5.70;99.90;;;;;;6306863;22;20539;-72
2024/01/06 01:07:00;;;;;;;8.90;4.18;;;5.70;99.90;;;;;;6305322;22;20042;-72
2024/01/06 01:09:26;;;;;;;7.93;3.95;;;5.70;99.90;;;;;;6304513;22;20030;-71
2024/01/06 01:11:54;;;;;;;8.68;4.03;;;5.70;99.90;;;;;;6305371;22;20016;-72
2024/01/06 01:14:21;;;;;;;11.70;4.85;;;5.70;99.90;;;;;;6305296;22;20015;-72
2024/01/06 01:16:48;;;;;;;11.60;5.20;;;5.70;99.90;;;;;;6305026;22;20022;-72
2024/01/06 01:19:14;;;;;;;12.07;5.13;;;5.70;99.90;;;;;;6253725;22;20019;-72
2024/01/06 01:21:42;;;;;;;13.00;5.68;;;5.70;99.90;;;;;;6254678;22;20460;-72
2024/01/06 01:24:09;;;;;;;11.55;5.32;;;5.80;99.90;;;;;;6279497;22;20017;-72
2024/01/06 01:26:36;;;;;;;9.93;5.07;;;5.80;99.90;;;;;;6305067;22;20125;-72
2024/01/06 01:29:03;;;;;;;11.10;4.75;;;5.80;99.90;;;;;;6279686;22;20023;-72
2024/01/06 01:31:30;;;;;;;10.13;4.95;;;5.80;99.90;;;;;;6279634;22;20030;-72
2024/01/06 01:33:57;;;;;;;10.63;4.65;;;5.90;99.90;;;;;;6279635;22;20023;-72
2024/01/06 01:36:24;;;;;;;8.70;4.13;;;5.90;99.90;;;;;;6254149;22;20107;-71
2024/01/06 01:38:51;;;;;;;9.13;4.07;;;5.80;99.90;;;;;;6306703;22;20021;-72
2024/01/06 01:41:18;;;;;;;8.55;3.80;;;5.90;99.90;;;;;;6279666;22;20015;-72
2024/01/06 01:43:46;;;;;;;10.00;4.28;;;5.80;99.90;;;;;;6254185;22;20024;-72
2024/01/06 01:46:15;;;;;;;7.70;3.55;;;5.90;99.90;;;;;;6306629;22;20049;-72
2024/01/06 01:48:43;;;;;;;8.68;3.90;;;5.90;99.90;;;;;;6279590;22;20077;-73
2024/01/06 01:51:10;;;;;;;9.32;4.32;;;5.90;99.90;;;;;;6279528;22;20441;-73
2024/01/06 01:53:37;;;;;;;10.77;4.30;;;5.90;99.90;;;;;;6304923;22;20069;-72
2024/01/06 01:56:05;;;;;;;8.10;4.10;;;5.90;99.90;;;;;;6279359;22;20405;-73
2024/01/06 01:58:32;;;;;;;9.75;4.25;;;5.90;99.90;;;;;;6305112;22;20387;-72
2024/01/06 02:01:00;;;;;;;8.27;3.95;;;5.90;99.90;;;;;;6279336;22;20022;-72
2024/01/06 02:03:30;;;;;;;7.18;2.95;;;5.90;99.90;;;;;;6304915;22;20023;-73
2024/01/06 02:05:59;;;;;;;;;;;5.90;99.90;;;;;;6307163;22;20042;-72
2024/01/06 02:08:26;;;;;;;8.23;4.03;;;5.90;99.90;;;;;;6279339;22;19915;-73
2024/01/06 02:10:56;;;;;;;9.98;4.53;;;5.90;99.90;;;;;;6306525;22;20068;-72
2024/01/06 02:13:24;;;;;;;11.32;5.00;;;5.90;99.90;;;;;;6304838;22;20457;-72
2024/01/06 02:15:52;;;;;;;11.65;5.18;;;5.90;99.90;;;;;;6254064;22;20345;-72
2024/01/06 02:18:20;;;;;;;10.82;4.90;;;5.90;99.90;;;;;;6279404;22;20011;-72
2024/01/06 02:20:49;;;;;;;12.88;5.47;;;5.80;99.90;;;;;;6279322;22;20026;-72
2024/01/06 02:23:16;;;;;;;11.10;5.15;;;5.80;99.90;;;;;;6304913;22;20019;-72
2024/01/06 02:25:44;;;;;;;11.35;5.75;;;5.80;99.90;;;;;;6306548;22;20019;-72
2024/01/06 02:28:11;;;;;;;13.55;5.82;;;5.80;99.90;;;;;;6228826;22;20027;-72
2024/01/06 02:30:38;;;;;;;13.07;6.13;;;5.70;99.90;;;;;;6255344;22;20019;-72
2024/01/06 02:33:05;;;;;;;12.68;6.00;;;5.70;99.90;;;;;;6306702;22;20035;-72
2024/01/06 02:35:32;;;;;;;15.88;6.22;;;5.70;99.90;;;;;;6281113;22;20042;-72
2024/01/06 02:37:59;;;;;;;18.85;7.65;;;5.70;99.90;;;;;;6281396;22;20039;-73
2024/01/06 02:40:26;;;;;;;18.00;7.50;;;5.60;99.90;;;;;;6306844;22;20015;-73
2024/01/06 02:42:53;;;;;;;17.05;7.32;;;5.60;99.90;;;;;;6306821;22;20019;-72
2024/01/06 02:45:20;;;;;;;14.00;6.63;;;5.60;99.90;;;;;;6306809;22;20020;-73
2024/01/06 02:47:47;;;;;;;11.23;5.47;;;5.60;99.90;;;;;;6255901;22;20015;-73
2024/01/06 02:50:15;;;;;;;12.55;5.38;;;5.60;99.90;;;;;;6281254;22;20087;-73
2024/01/06 02:52:42;;;;;;;11.07;5.60;;;5.60;99.90;;;;;;6255600;22;20042;-72
2024/01/06 02:55:09;;;;;;;12.77;6.32;;;5.60;99.90;;;;;;6306720;22;20064;-72
2024/01/06 02:57:37;;;;;;;14.52;7.10;;;5.60;99.90;;;;;;6281064;22;20314;-73
2024/01/06 03:00:05;;;;;;;14.18;5.70;;;5.60;99.90;;;;;;6281250;22;20019;-73
2024/01/06 03:02:32;;;;;;;14.48;6.38;;;5.50;99.90;;;;;;6255653;22;20088;-73
2024/01/06 03:05:00;;;;;;;13.40;6.65;;;5.50;99.90;;;;;;6306785;22;20015;-72
2024/01/06 03:07:27;;;;;;;14.27;6.57;;;5.50;99.90;;;;;;6255178;22;20019;-72
2024/01/06 03:09:54;;;;;;;13.95;6.15;;;5.50;99.90;;;;;;6281187;22;20015;-72
2024/01/06 03:12:21;;;;;;;15.07;6.35;;;5.50;99.90;;;;;;6280899;22;20023;-72
2024/01/06 03:14:48;;;;;;;12.85;6.13;;;5.50;99.90;;;;;;6255774;22;20015;-72
2024/01/06 03:17:15;;;;;;;12.20;5.88;;;5.50;99.90;;;;;;6280466;22;20073;-72
2024/01/06 03:19:42;;;;;;;14.55;5.90;;;5.50;99.90;;;;;;6280894;22;20019;-72
2024/01/06 03:22:13;;;;;;;15.02;7.05;;;5.50;99.90;;;;;;6281142;22;20015;-72
2024/01/06 03:24:40;;;;;;;14.35;6.43;;;5.40;99.90;;;;;;6306525;22;20007;-73
2024/01/06 03:27:08;;;;;;;15.50;7.60;;;5.40;99.90;;;;;;6255394;22;20019;-73
2024/01/06 03:29:36;;;;;;;15.50;7.88;;;5.40;99.90;;;;;;6230970;22;20110;-72
2024/01/06 03:32:03;;;;;;;15.65;7.78;;;5.40;99.90;;;;;;6306423;22;20019;-72
2024/01/06 03:34:30;;;;;;;14.75;7.25;;;5.40;99.90;;;;;;6306284;22;20023;-72
2024/01/06 03:36:57;;;;;;;18.35;8.45;;;5.40;99.90;;;;;;6255217;22;20011;-72
2024/01/06 03:39:24;;;;;;;19.17;8.68;;;5.30;99.90;;;;;;6307899;22;20011;-73
2024/01/06 03:41:51;;;;;;;14.65;7.95;;;5.30;99.90;;;;;;6306189;22;20047;-72
2024/01/06 03:44:18;;;;;;;14.45;6.57;;;5.30;99.90;;;;;;6280536;22;20067;-72
2024/01/06 03:46:45;;;;;;;13.35;5.55;;;5.30;99.90;;;;;;6280499;22;20072;-72
2024/01/06 03:49:13;;;;;;;12.20;6.57;;;5.30;99.90;;;;;;6230768;22;20023;-72
2024/01/06 03:51:40;;;;;;;13.95;5.57;;;5.30;99.90;;;;;;6280792;22;20397;-73
2024/01/06 03:54:07;;;;;;;15.73;7.00;;;5.30;99.90;;;;;;6280548;22;20023;-72
2024/01/06 03:56:34;;;;;;;13.65;5.55;;;5.30;99.90;;;;;;6255538;22;20026;-73
2024/01/06 03:59:01;;;;;;;13.20;6.20;;;5.30;99.90;;;;;;6280723;22;20437;-73
2024/01/06 04:01:28;;;;;;;12.85;6.13;;;5.30;99.90;;;;;;6255032;22;20026;-73
2024/01/06 04:03:56;;;;;;;14.20;6.00;;;5.30;99.90;;;;;;6280783;22;20065;-73
2024/01/06 04:06:23;;;;;;;12.65;6.50;;;5.30;99.90;;;;;;6255103;22;20049;-73
2024/01/06 04:08:50;;;;;;;13.50;6.43;;;5.30;99.90;;;;;;6306178;22;20445;-73
2024/01/06 04:11:17;;;;;;;15.68;7.30;;;5.30;99.90;;;;;;6280529;22;20020;-73
2024/01/06 04:13:44;;;;;;;15.07;6.93;;;5.30;99.90;;;;;;6280563;22;20030;-73
2024/01/06 04:16:11;;;;;;;15.63;6.57;;;5.30;99.90;;;;;;6255017;22;20019;-73
2024/01/06 04:18:39;;;;;;;15.32;7.10;;;5.30;99.90;;;;;;6338264;22;20014;-73
2024/01/06 04:21:06;;;;;;;16.38;6.30;;;5.30;99.90;;;;;;6310865;22;20018;-73
2024/01/06 04:23:33;;;;;;;16.02;8.30;;;5.20;99.90;;;;;;6311341;22;20015;-73
2024/01/06 04:26:00;;;;;;;17.75;7.65;;;5.30;99.90;;;;;;6310876;22;20023;-73
2024/01/06 04:28:27;;;;;;;16.88;7.70;;;5.20;99.90;;;;;;6338636;22;20019;-73
2024/01/06 04:30:54;;;;;;;22.75;10.32;;;5.20;99.90;;;;;;6285720;22;20045;-73
2024/01/06 04:33:21;;;;;;;25.08;10.65;;;5.20;99.90;;;;;;6285268;22;20018;-73
2024/01/06 04:35:50;;;;;;;23.17;10.65;;;5.20;99.90;;;;;;6310831;22;20029;-73
2024/01/06 04:38:17;;;;;;;19.42;9.88;;;5.10;99.90;;;;;;6311437;22;20014;-73
2024/01/06 04:40:44;;;;;;;20.45;9.45;;;5.10;99.90;;;;;;6285278;22;20445;-73
2024/01/06 04:43:11;;;;;;;21.15;9.48;;;5.00;99.90;;;;;;6311225;22;20015;-73
2024/01/06 04:45:38;;;;;;;23.85;10.75;;;5.00;99.90;;;;;;6311020;22;20010;-73
2024/01/06 04:48:05;;;;;;;19.77;10.30;;;5.00;99.90;;;;;;6311071;22;20022;-73
2024/01/06 04:50:32;;;;;;;21.05;9.55;;;5.00;99.90;;;;;;6311202;22;20091;-73
2024/01/06 04:52:59;;;;;;;21.27;10.32;;;5.00;99.90;;;;;;6285399;22;20027;-72
2024/01/06 04:55:27;;;;;;;19.77;9.50;;;5.00;99.90;;;;;;6285412;22;20075;-73
2024/01/06 04:57:54;;;;;;;20.92;9.27;;;5.00;99.90;;;;;;6310601;22;20109;-73
2024/01/06 05:00:21;;;;;;;19.00;8.63;;;4.90;99.90;;;;;;6310826;22;20049;-73
2024/01/06 05:02:48;;;;;;;20.30;8.38;;;4.90;99.90;;;;;;6259571;22;20019;-73
2024/01/06 05:05:15;;;;;;;18.25;8.52;;;5.00;99.90;;;;;;6310844;22;20011;-73
2024/01/06 05:07:42;;;;;;;19.45;9.45;;;4.90;99.90;;;;;;6285340;22;20011;-73
2024/01/06 05:10:09;;;;;;;16.02;7.55;;;4.90;99.90;;;;;;6285105;22;20052;-72
2024/01/06 05:12:36;;;;;;;16.35;7.88;;;4.90;99.90;;;;;;6310715;22;20022;-73
2024/01/06 05:15:03;;;;;;;15.48;6.22;;;4.90;99.90;;;;;;6311033;22;20384;-72
2024/01/06 05:17:33;;;;;;;11.60;5.47;;;4.90;99.90;;;;;;6337994;22;20011;-72
2024/01/06 05:20:00;;;;;;;13.02;5.82;;;4.90;99.90;;;;;;6311077;22;20015;-72
2024/01/06 05:22:27;;;;;;;12.35;6.03;;;5.00;99.90;;;;;;6285094;22;20441;-72
2024/01/06 05:24:54;;;;;;;16.80;7.65;;;5.00;99.90;;;;;;6310924;22;20014;-72
2024/01/06 05:27:21;;;;;;;13.32;6.20;;;4.90;99.90;;;;;;6284775;22;20334;-72
2024/01/06 05:29:49;;;;;;;18.45;9.07;;;4.90;99.90;;;;;;6284790;22;20041;-73
2024/01/06 05:32:17;;;;;;;17.27;8.35;;;4.80;99.90;;;;;;6259476;22;20101;-73
2024/01/06 05:34:45;;;;;;;16.30;8.52;;;4.80;99.90;;;;;;6285156;22;20022;-73
2024/01/06 05:37:12;;;;;;;18.42;8.07;;;4.80;99.90;;;;;;6285078;22;20014;-73
2024/01/06 05:39:42;;;;;;;19.55;9.38;;;4.70;99.90;;;;;;6285395;22;20015;-72
2024/01/06 05:42:15;;;;;;;15.60;8.30;;;4.70;99.90;;;;;;6285322;22;20041;-72
2024/01/06 05:44:42;;;;;;;15.82;8.00;;;4.70;99.90;;;;;;6284764;22;20018;-73
2024/01/06 05:47:09;;;;;;;18.15;7.68;;;4.60;99.90;;;;;;6310311;22;20021;-72
2024/01/06 05:49:36;;;;;;;14.23;6.65;;;4.60;99.90;;;;;;6284876;22;20072;-72
2024/01/06 05:52:03;;;;;;;14.45;6.85;;;4.60;99.90;;;;;;6310712;22;20015;-72
2024/01/06 05:54:33;;;;;;;17.58;8.20;;;4.60;99.90;;;;;;6285258;22;20341;-72
2024/01/06 05:57:00;;;;;;;17.95;8.15;;;4.60;99.90;;;;;;6310382;22;20095;-72
2024/01/06 05:59:27;;;;;;;21.58;10.95;;;4.50;99.90;;;;;;6284949;22;20091;-72
2024/01/06 06:01:54;;;;;;;17.63;8.43;;;4.50;99.90;;;;;;6310483;22;20049;-72
2024/01/06 06:04:21;;;;;;;16.20;7.43;;;4.50;99.90;;;;;;6284858;22;20015;-72
2024/01/06 06:06:48;;;;;;;17.50;7.45;;;4.50;99.90;;;;;;6287245;22;20382;-72
2024/01/06 06:09:15;;;;;;;16.58;7.55;;;4.50;99.90;;;;;;6312551;22;20344;-72
2024/01/06 06:11:43;;;;;;;15.95;8.20;;;4.50;99.90;;;;;;6312576;22;20094;-72
2024/01/06 06:14:10;;;;;;;16.95;7.25;;;4.50;99.90;;;;;;6339551;22;20087;-72
2024/01/06 06:16:37;;;;;;;17.38;7.63;;;4.50;99.90;;;;;;6312029;22;20015;-72
2024/01/06 06:19:07;;;;;;;15.30;7.65;;;4.50;99.90;;;;;;6337970;22;20076;-72
2024/01/06 06:21:34;;;;;;;17.08;8.27;;;4.40;99.90;;;;;;6339652;22;20391;-72
2024/01/06 06:24:02;;;;;;;13.80;8.00;;;4.40;99.90;;;;;;6312673;22;20508;-72
2024/01/06 06:26:30;;;;;;;16.83;7.75;;;4.40;99.90;;;;;;6287376;22;20085;-72
2024/01/06 06:28:58;;;;;;;18.45;8.52;;;4.40;99.90;;;;;;6286661;22;20054;-73
2024/01/06 06:31:25;;;;;;;16.38;7.60;;;4.40;99.90;;;;;;6286372;22;20080;-73
2024/01/06 06:33:52;;;;;;;14.50;6.88;;;4.30;99.90;;;;;;6261103;22;20430;-72
2024/01/06 06:36:19;;;;;;;15.27;7.93;;;4.30;99.90;;;;;;6312162;22;20068;-72
2024/01/06 06:38:46;;;;;;;13.48;6.47;;;4.30;99.90;;;;;;6286569;22;20436;-72
2024/01/06 06:41:13;;;;;;;13.80;7.10;;;4.30;99.90;;;;;;6339757;22;20049;-72
2024/01/06 06:43:42;;;;;;;13.95;6.82;;;4.30;99.90;;;;;;6311918;22;20015;-72
2024/01/06 06:46:09;;;;;;;12.35;6.60;;;4.30;99.90;;;;;;6286630;22;20022;-72
2024/01/06 06:48:36;;;;;;;15.43;7.40;;;4.30;99.90;;;;;;6286286;22;20026;-72
2024/01/06 06:51:04;;;;;;;13.57;7.03;;;4.30;99.90;;;;;;6312401;22;20053;-72
2024/01/06 06:53:32;;;;;;;15.18;7.35;;;4.30;99.90;;;;;;6286560;22;20018;-72
2024/01/06 06:55:59;;;;;;;14.23;7.10;;;4.30;99.90;;;;;;6339445;22;20041;-72
2024/01/06 06:58:26;;;;;;;12.68;6.22;;;4.30;99.90;;;;;;6260644;22;20019;-72
2024/01/06 07:00:54;;;;;;;14.63;7.18;;;4.30;99.90;;;;;;6286139;22;20026;-72
2024/01/06 07:03:21;;;;;;;16.60;7.50;;;4.30;99.90;;;;;;6286539;22;20049;-73
2024/01/06 07:05:51;;;;;;;10.32;5.40;;;4.30;99.90;;;;;;6312580;22;20734;-72
2024/01/06 07:08:18;;;;;;;12.95;6.40;;;4.30;99.90;;;;;;6312099;22;20338;-72
2024/01/06 07:10:45;;;;;;;15.65;7.55;;;4.30;99.90;;;;;;6260587;22;20022;-73
2024/01/06 07:13:12;;;;;;;14.88;8.02;;;4.30;99.90;;;;;;6311481;22;20025;-73
2024/01/06 07:15:39;;;;;;;19.40;8.65;;;4.20;99.90;;;;;;6286729;22;20019;-73
2024/01/06 07:18:06;;;;;;;15.95;7.30;;;4.20;99.90;;;;;;6337551;22;20495;-73
2024/01/06 07:20:33;;;;;;;15.38;7.03;;;4.20;99.90;;;;;;6312077;22;20026;-73
2024/01/06 07:23:02;;;;;;;13.43;5.93;;;4.10;99.90;;;;;;6286156;22;20044;-73
2024/01/06 07:25:30;;;;;;;12.60;6.95;;;4.10;99.90;;;;;;6286486;22;20500;-73
2024/01/06 07:27:57;;;;;;;14.20;7.35;;;4.10;99.90;;;;;;6311681;22;20436;-73
2024/01/06 07:30:24;;;;;;;12.48;6.35;;;4.10;99.90;;;;;;6311899;22;20521;-73
2024/01/06 07:32:52;;;;;;;11.73;5.68;;;4.10;99.90;;;;;;6311283;22;20501;-73
2024/01/06 07:35:19;;;;;;;9.40;4.90;;;4.10;99.90;;;;;;6339069;22;20021;-73
2024/01/06 07:37:46;;;;;;;9.48;4.22;;;4.20;99.90;;;;;;6311642;22;20318;-73
2024/01/06 07:40:16;;;;;;;9.48;4.70;;;4.20;99.90;;;;;;6286291;22;20015;-73
2024/01/06 07:42:44;;;;;;;9.52;4.43;;;4.20;99.90;;;;;;6286917;22;20014;-73
2024/01/06 07:45:11;;;;;;;11.73;6.38;;;4.20;99.90;;;;;;6285823;22;20098;-73
2024/01/06 07:47:41;;;;;;;13.05;6.15;;;4.20;99.90;;;;;;6286478;22;20399;-73
2024/01/06 07:50:09;;;;;;;11.38;5.15;;;4.10;99.90;;;;;;6286104;22;20467;-73
2024/01/06 07:52:36;;;;;;;10.95;5.07;;;4.10;99.90;;;;;;6285985;22;20022;-73
2024/01/06 07:55:03;;;;;;;9.75;5.05;;;4.10;99.90;;;;;;6311519;22;20449;-73
2024/01/06 07:57:30;;;;;;;9.10;4.43;;;4.10;99.90;;;;;;6260134;22;20355;-73
2024/01/06 07:59:57;;;;;;;10.05;4.45;;;4.10;99.90;;;;;;6311474;22;20015;-73
2024/01/06 08:02:37;;;;;;;12.98;6.50;;;4.20;99.90;;;;;;6314448;22;20018;-73
2024/01/06 08:05:05;;;;;;;12.05;6.32;;;4.20;99.90;;;;;;6285932;22;20011;-73
2024/01/06 08:07:32;;;;;;;13.57;6.40;;;4.10;99.90;;;;;;6285794;22;20022;-73
2024/01/06 08:09:59;;;;;;;12.50;5.43;;;4.10;99.90;;;;;;6285687;22;20015;-73
2024/01/06 08:12:26;;;;;;;13.80;6.55;;;4.00;99.90;;;;;;6285509;22;20019;-73
2024/01/06 08:14:53;;;;;;;12.98;6.13;;;4.10;99.90;;;;;;6285481;22;20026;-73
2024/01/06 08:17:20;;;;;;;13.90;6.25;;;4.00;99.90;;;;;;6338304;22;20080;-73
2024/01/06 08:19:47;;;;;;;14.75;7.40;;;4.00;99.90;;;;;;6310868;22;20038;-73
2024/01/06 08:22:15;;;;;;;12.88;6.25;;;4.00;99.90;;;;;;6285328;22;20019;-73
2024/01/06 08:24:42;;;;;;;13.38;6.35;;;3.90;99.90;;;;;;6285597;22;20015;-73
2024/01/06 08:27:09;;;;;;;14.13;6.68;;;4.00;99.90;;;;;;6336554;22;20096;-73
2024/01/06 08:29:36;;;;;;;11.02;5.50;;;4.00;99.90;;;;;;6285349;22;20100;-73
2024/01/06 08:32:03;;;;;;;10.90;5.13;;;4.00;99.90;;;;;;6285632;22;20360;-73
2024/01/06 08:34:30;;;;;;;11.98;5.75;;;4.00;99.90;;;;;;6285214;22;20027;-73
2024/01/06 08:36:59;;;;;;;15.10;5.50;;;4.00;99.90;;;;;;6285508;22;20105;-77
2024/01/06 08:39:26;;;;;;;13.73;6.55;;;4.00;99.90;;;;;;6285477;22;20097;-80
2024/01/06 08:41:53;;;;;;;10.73;5.82;;;4.00;99.90;;;;;;6285248;22;20019;-73
2024/01/06 08:44:22;;;;;;;13.40;6.85;;;4.00;99.90;;;;;;6285457;22;20341;-73
2024/01/06 08:46:48;;;;;;;13.63;6.40;;;4.00;99.90;;;;;;6284958;22;20046;-73
2024/01/06 08:49:16;;;;;;;12.93;5.88;;;3.90;99.90;;;;;;6310696;22;20046;-74
2024/01/06 08:51:43;;;;;;;18.20;8.73;;;4.00;99.90;;;;;;6285602;22;20010;-74
2024/01/06 08:54:10;;;;;;;18.25;9.43;;;3.90;99.90;;;;;;6285372;22;20413;-74
2024/01/06 08:56:38;;;;;;;17.73;7.75;;;3.90;99.90;;;;;;6284715;22;20341;-76
2024/01/06 08:59:05;;;;;;;13.60;6.20;;;3.90;99.90;;;;;;6284901;22;20015;-73
2024/01/06 09:01:34;;;;;;;14.70;6.65;;;3.90;99.90;;;;;;6310354;22;20019;-72
2024/01/06 09:04:01;;;;;;;13.90;6.53;;;3.90;99.90;;;;;;6310832;22;20046;-72
2024/01/06 09:06:29;;;;;;;14.18;6.05;;;3.90;99.90;;;;;;6310822;22;20053;-73
2024/01/06 09:08:56;;;;;;;12.73;6.35;;;3.90;99.90;;;;;;6338106;22;20057;-73
2024/01/06 09:11:23;;;;;;;12.82;6.65;;;3.90;99.90;;;;;;6338133;22;20019;-72
2024/01/06 09:13:52;;;;;;;11.95;5.70;;;3.90;99.90;;;;;;6284757;22;20453;-73
2024/01/06 09:16:20;;;;;;;13.10;6.50;;;4.00;99.90;;;;;;6285200;22;20046;-72
2024/01/06 09:18:49;;;;;;;12.98;6.32;;;4.00;99.90;;;;;;6309949;22;20019;-72
2024/01/06 09:21:17;;;;;;;15.15;6.75;;;4.00;99.90;;;;;;6310098;22;20018;-72
2024/01/06 09:23:44;;;;;;;15.52;6.80;;;4.00;99.90;;;;;;6310858;22;20046;-73
2024/01/06 09:26:11;;;;;;;14.35;6.72;;;4.00;99.90;;;;;;6284438;22;20019;-73
2024/01/06 09:28:39;;;;;;;14.55;6.80;;;4.00;99.90;;;;;;6284751;22;20030;-72
2024/01/06 09:31:06;;;;;;;15.35;7.10;;;4.00;99.90;;;;;;6284372;22;20033;-72
2024/01/06 09:33:34;;;;;;;15.45;6.90;;;3.90;99.90;;;;;;6310626;22;20041;-72
2024/01/06 09:36:02;;;;;;;17.23;8.73;;;4.00;99.90;;;;;;6259472;22;20023;-72
2024/01/06 09:38:29;;;;;;;13.63;7.20;;;3.90;99.90;;;;;;6284517;22;20011;-72
2024/01/06 09:40:57;;;;;;;17.65;7.88;;;3.90;99.90;;;;;;6310287;22;20019;-72
2024/01/06 09:43:25;;;;;;;16.50;7.97;;;3.90;99.90;;;;;;6310495;22;20015;-72
2024/01/06 09:45:58;;;;;;;17.48;9.40;;;3.90;99.90;;;;;;6310711;22;20015;-72
2024/01/06 09:48:30;;;;;;;18.63;9.93;;;3.90;99.90;;;;;;6337862;22;20021;-72
2024/01/06 09:51:01;;;;;;;;;;;3.90;99.90;;;;;;6311028;22;20532;-72
2024/01/06 09:53:36;;;;;;;19.30;10.05;;;3.80;99.90;;;;;;6310062;22;19948;-72
2024/01/06 09:56:08;;;;;;;17.27;8.20;;;3.80;99.90;;;;;;6310803;22;20026;-72
2024/01/06 09:58:38;;;;;;;18.05;8.98;;;3.80;99.90;;;;;;6337542;22;20017;-72
2024/01/06 10:01:07;;;;;;;19.15;10.77;;;3.80;99.90;;;;;;6310016;22;20015;-73
2024/01/06 10:03:36;;;;;;;18.05;8.40;;;3.80;99.90;;;;;;6284982;22;20099;-73
2024/01/06 10:06:04;;;;;;;17.02;8.93;;;3.80;99.90;;;;;;6310058;22;20019;-73
2024/01/06 10:08:32;;;;;;;17.98;8.60;;;3.80;99.90;;;;;;6284665;22;20023;-72
2024/01/06 10:11:00;;;;;;;16.92;10.00;;;3.80;99.90;;;;;;6259282;22;20046;-73
2024/01/06 10:13:28;;;;;;;20.67;10.80;;;3.80;99.90;;;;;;6337470;22;20102;-72
2024/01/06 10:15:56;;;;;;;17.90;8.75;;;3.80;99.90;;;;;;6310370;22;20023;-72
2024/01/06 10:18:26;;;;;;;14.13;6.88;;;3.80;99.90;;;;;;6309519;22;20498;-73
2024/01/06 10:20:54;;;;;;;13.60;7.00;;;3.90;99.90;;;;;;6309925;22;20322;-73
2024/01/06 10:23:23;;;;;;;12.65;7.38;;;3.90;99.90;;;;;;6310311;22;20318;-72
2024/01/06 10:25:54;;;;;;;15.02;8.63;;;3.90;99.90;;;;;;6284288;22;20388;-72
2024/01/06 10:28:25;;;;;;;17.50;8.02;;;4.00;99.90;;;;;;6284996;22;20050;-73
2024/01/06 10:30:53;;;;;;;18.02;9.30;;;3.90;99.90;;;;;;6310282;22;20038;-73
2024/01/06 10:33:22;;;;;;;22.15;9.85;;;3.90;99.90;;;;;;6309875;22;20528;-72
2024/01/06 10:35:54;;;;;;;20.40;10.65;;;3.90;99.90;;;;;;6284822;22;20029;-73
2024/01/06 10:38:22;;;;;;;18.90;9.85;;;3.90;99.90;;;;;;6284113;22;20460;-72
2024/01/06 10:41:07;;;;;;;21.15;11.48;;;3.80;99.90;;;;;;6284394;22;20023;-73
2024/01/06 10:43:36;;;;;;;18.65;10.00;;;3.80;99.90;;;;;;6309849;22;20019;-73
2024/01/06 10:46:04;;;;;;;16.83;8.60;;;3.80;99.90;;;;;;6284696;22;20025;-73
2024/01/06 10:48:35;;;;;;;16.88;8.60;;;3.80;99.90;;;;;;6309545;22;20023;-73
2024/01/06 10:51:07;;;;;;;16.08;8.65;;;3.80;99.90;;;;;;6285311;22;20448;-73
2024/01/06 10:53:37;;;;;;;16.90;8.55;;;3.80;99.90;;;;;;6313154;22;20018;-72
2024/01/06 10:56:08;;;;;;;13.70;7.30;;;3.90;99.90;;;;;;6312154;22;20014;-72
2024/01/06 10:58:42;;;;;;;18.20;8.85;;;3.90;99.90;;;;;;6286746;22;20007;-72
2024/01/06 11:01:09;;;;;;;12.07;6.80;;;3.90;99.90;;;;;;6287141;22;20429;-72
2024/01/06 11:03:38;;;;;;;14.10;6.90;;;3.90;99.90;;;;;;6286014;22;20391;-79
2024/01/06 11:06:10;;;;;;;15.35;7.28;;;3.90;99.90;;;;;;6311219;22;20124;-78
2024/01/06 11:08:49;;;;;;;;;;;3.90;99.90;;;;;;6311909;22;20026;-78
2024/01/06 11:11:20;;;;;;;13.45;6.20;;;3.80;99.90;;;;;;6311124;22;19915;-78
2024/01/06 11:13:50;;;;;;;13.50;7.00;;;3.80;99.90;;;;;;6285627;22;20113;-78
2024/01/06 11:16:34;;;;;;;13.18;6.72;;;3.90;99.90;;;;;;6260867;22;20524;-78
2024/01/06 11:19:01;;;;;;;15.07;7.88;;;3.90;99.90;;;;;;6311412;22;20018;-78
2024/01/06 11:21:34;;;;;;;14.13;7.13;;;3.90;99.90;;;;;;6285491;22;20022;-77
2024/01/06 11:24:14;;;;;;;13.55;7.20;;;3.80;99.90;;;;;;6260795;22;20359;-77
2024/01/06 11:26:49;;;;;;;14.23;7.25;;;3.90;99.90;;;;;;6311468;22;20046;-78
2024/01/06 11:29:16;;;;;;;12.88;6.55;;;3.90;99.90;;;;;;6285477;22;20161;-77
2024/01/06 11:31:51;;;;;;;13.27;6.05;;;3.90;99.90;;;;;;6261070;22;20064;-77
2024/01/06 11:34:20;;;;;;;11.10;5.57;;;3.90;99.90;;;;;;6285557;22;20017;-78
2024/01/06 11:36:50;;;;;;;10.90;5.25;;;3.90;99.90;;;;;;6286219;22;20026;-77
2024/01/06 11:39:40;;;;;;;15.13;7.63;;;3.90;99.90;;;;;;6285554;22;20034;-77
2024/01/06 11:42:13;;;;;;;14.02;7.57;;;3.90;99.90;;;;;;6285983;22;20019;-77
2024/01/06 11:44:44;;;;;;;14.07;7.47;;;3.90;99.90;;;;;;6285068;22;20122;-78
2024/01/06 11:47:12;;;;;;;14.95;8.27;;;3.90;99.90;;;;;;6285668;22;20471;-77
2024/01/06 11:49:40;;;;;;;13.75;7.45;;;3.90;99.90;;;;;;6260293;22;20023;-77
2024/01/06 11:52:07;;;;;;;14.77;7.68;;;3.90;99.90;;;;;;6286098;22;20356;-78
2024/01/06 11:54:35;;;;;;;15.57;7.90;;;3.90;99.90;;;;;;6260660;22;20029;-78
2024/01/06 11:57:02;;;;;;;16.05;8.10;;;3.90;99.90;;;;;;6285326;22;20061;-78
2024/01/06 11:59:30;;;;;;;13.15;6.80;;;3.80;99.90;;;;;;6286270;22;20011;-78
2024/01/06 12:01:57;;;;;;;16.08;8.63;;;3.90;99.90;;;;;;6285237;22;20045;-78
2024/01/06 12:04:25;;;;;;;13.52;7.85;;;3.80;99.90;;;;;;6285364;22;20395;-78
2024/01/06 12:06:54;;;;;;;14.07;7.30;;;3.80;99.90;;;;;;6285759;22;20015;-77
2024/01/06 12:09:24;;;;;;;11.43;5.78;;;3.80;99.90;;;;;;6260441;22;20113;-77
2024/01/06 12:12:05;;;;;;;12.13;5.72;;;3.80;99.90;;;;;;6285541;22;20076;-77
2024/01/06 12:14:32;;;;;;;13.63;6.78;;;3.90;99.90;;;;;;6285376;22;20022;-78
2024/01/06 12:17:03;;;;;;;13.05;8.07;;;3.80;99.90;;;;;;6285372;22;20101;-79
2024/01/06 12:19:32;;;;;;;11.93;6.45;;;3.80;99.90;;;;;;6260484;22;20022;-78
2024/01/06 12:22:07;;;;;;;15.90;9.02;;;3.80;99.90;;;;;;6286935;22;20021;-73
2024/01/06 12:24:34;;;;;;;14.82;9.05;;;3.70;99.90;;;;;;6310844;22;20019;-78
2024/01/06 12:27:02;;;;;;;15.55;8.82;;;3.70;99.90;;;;;;6285332;22;20084;-79
2024/01/06 12:29:29;;;;;;;16.40;9.25;;;3.70;99.90;;;;;;6285352;22;20091;-80
2024/01/06 12:31:56;;;;;;;13.23;7.03;;;3.70;99.90;;;;;;6285450;22;20026;-77
2024/01/06 12:34:24;;;;;;;12.93;7.10;;;3.70;99.90;;;;;;6260001;22;20018;-74
2024/01/06 12:36:54;;;;;;;12.82;7.22;;;3.70;99.90;;;;;;6259947;22;20440;-74
2024/01/06 12:39:23;;;;;;;13.07;6.88;;;3.80;99.90;;;;;;6338356;22;20014;-76
2024/01/06 12:41:51;;;;;;;13.18;6.38;;;3.70;99.90;;;;;;6310867;22;20015;-74
2024/01/06 12:44:18;;;;;;;9.23;5.53;;;3.80;99.90;;;;;;6284892;22;20068;-74
2024/01/06 12:46:47;;;;;;;13.30;7.05;;;3.80;99.90;;;;;;6310645;22;20039;-74
2024/01/06 12:49:14;;;;;;;15.75;9.13;;;3.80;99.90;;;;;;6259297;22;20044;-74
2024/01/06 12:51:41;;;;;;;17.45;10.25;;;3.70;99.90;;;;;;6284911;22;20010;-73